Time;durP1;ratioP1;P1;durP2;ratioP2;P2;SDS_P1;SDS_P2;PMS_P1;PMS_P2;Temp;Humidity;BMP_temperature;BMP_pressure;BME280_temperature;BME280_humidity;BME280_pressure;Samples;Min_cycle;Max_cycle;Signal;HPM_P1;HPM_P2
2022/12/23 00:02:53;;;;;;;14.47;4.63;;;;;;;5.49;88.25;99230.56;10477841;28;20230;-88
2022/12/23 00:08:16;;;;;;;12.47;4.30;;;;;;;5.94;87.04;99231.00;10520997;28;20191;-87
2022/12/23 00:19:20;;;;;;;10.57;3.83;;;;;;;5.64;88.34;99235.63;10526557;28;20210;-88
2022/12/23 00:24:42;;;;;;;8.93;4.23;;;;;;;5.61;88.12;99236.31;10505046;28;20201;-87
2022/12/23 00:30:08;;;;;;;10.63;4.67;;;;;;;5.85;87.51;99233.81;10487356;28;20202;-87
2022/12/23 00:35:31;;;;;;;11.77;4.67;;;;;;;5.99;86.41;99233.63;10540858;28;20210;-86
2022/12/23 00:46:36;;;;;;;11.80;4.90;;;;;;;5.81;87.74;99229.19;10509190;28;20224;-87
2022/12/23 00:51:59;;;;;;;11.40;4.90;;;;;;;5.41;87.62;99234.16;10498522;28;20199;-87
2022/12/23 00:57:21;;;;;;;11.47;5.47;;;;;;;5.72;87.61;99225.59;10498326;28;20219;-87
2022/12/23 01:08:26;;;;;;;11.73;5.03;;;;;;;5.84;87.29;99236.94;10525873;28;20187;-86
2022/12/23 01:13:48;;;;;;;10.67;5.37;;;;;;;5.84;87.11;99243.34;10556517;27;20268;-87
2022/12/23 01:19:10;;;;;;;9.33;4.37;;;;;;;5.75;87.45;99245.34;10502541;28;20211;-86
2022/12/23 01:24:33;;;;;;;10.00;4.40;;;;;;;5.96;86.92;99245.47;10474177;28;20221;-87
2022/12/23 01:29:55;;;;;;;11.80;4.90;;;;;;;5.85;88.79;99250.59;10530101;28;20583;-86
2022/12/23 01:35:18;;;;;;;12.20;5.50;;;;;;;5.52;90.35;99261.44;10490040;28;20276;-85
2022/12/23 01:40:42;;;;;;;10.33;5.37;;;;;;;5.41;90.52;99262.91;10468336;28;20207;-85
2022/12/23 01:46:04;;;;;;;11.13;4.93;;;;;;;5.32;92.54;99281.66;10497430;28;20195;-85
2022/12/23 01:51:28;;;;;;;10.83;4.37;;;;;;;5.47;91.47;99278.38;10512962;28;20186;-85
2022/12/23 01:56:51;;;;;;;10.90;4.73;;;;;;;5.53;90.56;99279.84;10514741;28;20273;-86
2022/12/23 02:19:37;;;;;;;10.70;5.43;;;;;;;5.84;90.06;99290.88;10524733;28;20199;-85
2022/12/23 02:25:21;;;;;;;9.20;6.17;;;;;;;5.52;91.00;99294.16;10475086;28;20233;-86
2022/12/23 02:30:51;;;;;;;8.13;6.67;;;;;;;5.86;90.18;99294.19;10528843;28;20197;-88
2022/12/23 02:36:36;;;;;;;12.63;8.67;;;;;;;5.87;91.01;99297.81;10485878;28;20684;-87
2022/12/23 02:42:19;;;;;;;12.73;8.53;;;;;;;5.82;89.13;99311.94;10533024;28;20203;-87
2022/12/23 02:47:47;;;;;;;15.80;9.00;;;;;;;6.10;88.22;99307.66;10525770;28;20210;-87
2022/12/23 02:53:33;;;;;;;12.23;8.17;;;;;;;5.81;89.42;99324.28;10525941;28;20203;-87
2022/12/23 02:59:07;;;;;;;14.27;10.03;;;;;;;6.23;87.84;99326.25;10475257;28;20242;-88
2022/12/23 03:04:30;;;;;;;12.53;9.13;;;;;;;6.21;87.95;99336.94;10501651;28;20210;-87
2022/12/23 03:10:21;;;;;;;15.27;9.97;;;;;;;5.95;88.41;99336.13;10506065;28;20202;-86
2022/12/23 03:16:20;;;;;;;17.03;11.00;;;;;;;5.79;89.28;99343.34;10498895;28;20231;-86
2022/12/23 03:22:01;;;;;;;19.33;10.90;;;;;;;5.87;89.57;99345.34;10532178;28;20260;-85
2022/12/23 03:27:26;;;;;;;18.20;12.10;;;;;;;5.93;89.23;99352.41;10495355;28;20623;-86
2022/12/23 03:32:55;;;;;;;18.60;11.27;;;;;;;5.78;89.89;99356.50;10521530;28;20211;-87
2022/12/23 03:38:20;;;;;;;15.53;11.37;;;;;;;6.02;88.76;99378.41;10546028;28;20287;-86
2022/12/23 03:43:47;;;;;;;16.33;10.73;;;;;;;5.96;89.67;99374.13;10512018;28;20207;-88
2022/12/23 03:49:14;;;;;;;13.90;8.97;;;;;;;5.73;90.70;99381.00;10497866;28;20248;-88
2022/12/23 03:54:45;;;;;;;11.97;8.93;;;;;;;6.47;87.84;99378.09;10492231;28;20234;-86
2022/12/23 04:00:08;;;;;;;11.93;8.87;;;;;;;6.26;88.13;99378.75;10503691;28;20240;-86
2022/12/23 04:05:38;;;;;;;12.83;10.00;;;;;;;5.94;88.30;99373.63;10506473;28;20256;-88
2022/12/23 04:11:01;;;;;;;14.13;9.63;;;;;;;6.27;87.90;99374.78;10517234;28;20340;-87
2022/12/23 04:16:23;;;;;;;12.30;10.03;;;;;;;6.09;88.63;99375.94;10488420;28;20287;-88
2022/12/23 04:21:45;;;;;;;14.67;11.10;;;;;;;5.81;89.59;99371.81;10480870;28;20260;-87
2022/12/23 04:27:11;;;;;;;18.37;12.57;;;;;;;5.88;89.48;99378.56;10508162;27;20640;-87
2022/12/23 04:32:34;;;;;;;18.00;12.87;;;;;;;6.06;88.10;99373.78;10490135;28;20218;-86
2022/12/23 04:37:56;;;;;;;16.43;13.23;;;;;;;6.37;86.72;99389.59;10484689;28;20292;-85
2022/12/23 04:43:18;;;;;;;14.77;12.30;;;;;;;6.26;87.66;99375.94;10484351;28;20215;-87
2022/12/23 04:48:40;;;;;;;14.50;10.70;;;;;;;6.09;87.66;99377.91;10502529;28;20299;-87
2022/12/23 04:54:02;;;;;;;12.73;9.40;;;;;;;6.34;86.85;99379.06;10491391;28;20195;-88
2022/12/23 04:59:25;;;;;;;13.53;8.93;;;;;;;6.35;87.15;99392.72;10495154;28;20290;-87
2022/12/23 05:04:48;;;;;;;8.83;7.37;;;;;;;5.90;88.54;99400.59;10521011;28;20198;-86
2022/12/23 05:10:10;;;;;;;9.97;8.43;;;;;;;5.68;90.92;99397.94;10513313;28;20537;-85
2022/12/23 05:15:33;;;;;;;12.23;8.43;;;;;;;5.88;89.64;99394.53;10430771;28;20282;-85
2022/12/23 05:20:55;;;;;;;9.80;6.67;;;;;;;6.19;88.03;99406.38;10440196;28;20196;-88
2022/12/23 05:26:18;;;;;;;9.43;6.57;;;;;;;6.26;88.22;99398.34;10421985;28;20197;-87
2022/12/23 05:31:40;;;;;;;6.07;5.37;;;;;;;6.13;87.31;99407.72;10423554;28;20223;-87
2022/12/23 05:37:02;;;;;;;7.13;5.20;;;;;;;6.23;88.25;99401.78;10431105;28;20224;-87
2022/12/23 05:42:24;;;;;;;7.70;5.80;;;;;;;5.59;90.78;99401.53;10456952;28;20281;-86
2022/12/23 05:47:46;;;;;;;8.43;5.77;;;;;;;6.47;86.30;99401.31;10441869;28;20196;-85
2022/12/23 05:53:09;;;;;;;10.97;6.67;;;;;;;5.79;89.57;99402.06;10402843;28;20231;-85
2022/12/23 05:58:31;;;;;;;8.90;6.03;;;;;;;6.04;88.26;99404.06;10449660;28;20584;-86
2022/12/23 06:03:53;;;;;;;9.57;6.23;;;;;;;6.25;88.38;99416.28;10445320;28;20203;-86
2022/12/23 06:09:16;;;;;;;7.40;6.13;;;;;;;6.12;87.58;99433.22;10456947;28;20196;-85
2022/12/23 06:14:39;;;;;;;6.03;4.73;;;;;;;5.89;89.67;99447.31;10466848;28;20226;-86
2022/12/23 06:20:01;;;;;;;9.83;6.00;;;;;;;5.79;89.33;99449.59;10477287;28;20692;-86
2022/12/23 06:25:24;;;;;;;7.80;6.70;;;;;;;5.84;89.30;99455.88;10496731;28;20286;-87
2022/12/23 06:30:52;;;;;;;8.57;7.07;;;;;;;5.94;89.01;99447.16;10515796;28;20198;-87
2022/12/23 06:36:14;;;;;;;11.33;7.27;;;;;;;5.85;90.55;99448.31;10497701;28;20236;-85
2022/12/23 06:41:36;;;;;;;10.67;7.80;;;;;;;5.79;91.25;99446.81;10497571;28;20284;-85
2022/12/23 06:46:58;;;;;;;12.07;8.43;;;;;;;5.95;88.95;99453.59;10506985;28;20207;-85
2022/12/23 06:52:21;;;;;;;13.07;9.93;;;;;;;6.07;88.81;99445.38;10508976;28;20190;-86
2022/12/23 06:57:43;;;;;;;11.80;9.80;;;;;;;6.01;88.89;99449.50;10525359;28;20639;-85
2022/12/23 07:03:06;;;;;;;14.33;9.90;;;;;;;6.14;88.67;99442.13;10496870;28;20226;-84
2022/12/23 07:08:28;;;;;;;15.87;10.30;;;;;;;5.74;89.37;99449.78;10520079;28;20283;-85
2022/12/23 07:13:50;;;;;;;11.87;8.93;;;;;;;6.00;88.57;99444.22;10510109;28;20222;-85
2022/12/23 07:19:13;;;;;;;11.53;9.03;;;;;;;5.99;89.05;99459.38;10518683;28;20215;-85
2022/12/23 07:24:36;;;;;;;14.43;9.47;;;;;;;6.04;87.99;99471.19;10498044;28;20260;-85
2022/12/23 07:29:58;;;;;;;12.67;8.67;;;;;;;5.84;88.19;99483.00;10535918;28;20258;-87
2022/12/23 07:35:20;;;;;;;13.90;9.10;;;;;;;5.95;88.54;99489.94;10532949;28;20233;-85
2022/12/23 07:40:47;;;;;;;15.70;10.83;;;;;;;5.89;88.68;99508.03;10513538;28;20207;-85
2022/12/23 07:46:09;;;;;;;17.53;11.60;;;;;;;5.99;87.87;99518.09;10493243;28;20250;-85
2022/12/23 07:51:32;;;;;;;17.57;13.30;;;;;;;5.98;87.67;99527.63;10507794;28;20587;-87
2022/12/23 07:56:54;;;;;;;22.47;14.10;;;;;;;5.93;88.33;99525.81;10486625;28;20214;-86
2022/12/23 08:02:17;;;;;;;15.37;11.37;;;;;;;5.92;87.42;99524.16;10510899;28;20542;-87
2022/12/23 08:07:39;;;;;;;20.87;13.00;;;;;;;5.66;89.23;99526.03;10504052;28;20233;-85
2022/12/23 08:13:02;;;;;;;20.07;12.30;;;;;;;5.54;89.27;99524.66;10516927;28;20699;-86
2022/12/23 08:18:24;;;;;;;20.77;12.87;;;;;;;5.66;89.27;99518.47;10512677;28;20245;-86
2022/12/23 08:23:47;;;;;;;17.83;12.13;;;;;;;5.72;89.12;99517.19;10514165;28;20249;-85
2022/12/23 08:29:09;;;;;;;20.10;13.57;;;;;;;5.74;88.42;99511.28;10487814;28;20202;-84
2022/12/23 08:34:31;;;;;;;19.43;12.60;;;;;;;5.95;87.84;99512.31;10502257;28;20198;-84
2022/12/23 08:39:54;;;;;;;18.83;12.30;;;;;;;5.82;87.09;99516.06;10520931;28;20367;-87
2022/12/23 08:45:16;;;;;;;19.87;11.63;;;;;;;6.07;86.26;99506.91;10493874;28;20220;-85
2022/12/23 08:50:40;;;;;;;21.83;12.17;;;;;;;5.86;86.76;99508.69;10485648;28;20240;-86
2022/12/23 08:56:08;;;;;;;19.00;11.67;;;;;;;5.63;87.19;99509.91;10511654;28;20234;-89
2022/12/23 09:01:32;;;;;;;18.17;13.13;;;;;;;6.07;86.98;99504.13;10522522;28;20563;-85
2022/12/23 09:06:54;;;;;;;17.40;11.43;;;;;;;6.11;86.08;99512.69;10506378;28;20194;-87
2022/12/23 09:12:17;;;;;;;16.10;11.20;;;;;;;6.15;85.20;99520.09;10488583;28;20260;-86
2022/12/23 09:17:39;;;;;;;17.73;10.77;;;;;;;5.87;86.45;99521.53;10503132;28;20256;-87
2022/12/23 09:23:02;;;;;;;14.73;10.37;;;;;;;5.75;86.59;99507.34;10518347;28;20195;-85
2022/12/23 09:28:25;;;;;;;15.47;10.20;;;;;;;6.10;84.70;99503.47;10506988;28;20190;-86
2022/12/23 09:33:50;;;;;;;14.67;9.80;;;;;;;5.93;85.46;99506.22;10522856;28;20194;-85
2022/12/23 09:39:12;;;;;;;18.23;10.70;;;;;;;5.89;86.37;99508.03;10488647;28;20630;-85
2022/12/23 09:44:54;;;;;;;14.77;10.83;;;;;;;6.26;83.91;99501.88;10497550;28;20194;-90
2022/12/23 09:50:25;;;;;;;15.57;9.97;;;;;;;6.07;85.61;99500.50;10519527;28;20250;-86
2022/12/23 09:55:55;;;;;;;17.40;10.47;;;;;;;6.39;84.09;99474.88;10523810;28;20485;-85
2022/12/23 10:01:29;;;;;;;15.47;10.03;;;;;;;6.48;83.60;99469.31;10518812;28;20198;-86
2022/12/23 10:07:27;;;;;;;13.90;9.90;;;;;;;6.04;84.49;99476.78;10516869;28;20260;-88
2022/12/23 10:12:51;;;;;;;15.60;11.30;;;;;;;6.24;84.16;99476.19;10488618;28;20622;-85
2022/12/23 10:18:23;;;;;;;14.23;10.90;;;;;;;6.62;82.94;99469.97;10520841;28;20218;-85
2022/12/23 10:23:50;;;;;;;14.90;10.60;;;;;;;6.39;82.84;99476.84;10514985;28;20211;-84
2022/12/23 10:29:23;;;;;;;15.37;11.60;;;;;;;6.47;82.41;99462.06;10516294;28;20585;-85
2022/12/23 10:34:55;;;;;;;17.83;11.30;;;;;;;6.45;83.00;99442.78;10498932;28;20263;-84
2022/12/23 10:40:24;;;;;;;16.70;11.43;;;;;;;6.45;82.73;99422.38;10520058;28;20260;-84
2022/12/23 10:46:05;;;;;;;16.03;11.00;;;;;;;6.71;81.53;99411.16;10523805;28;20203;-90
2022/12/23 10:51:44;;;;;;;16.20;10.93;;;;;;;6.62;82.20;99391.56;10515776;28;20264;-85
2022/12/23 10:57:07;;;;;;;14.87;10.27;;;;;;;6.64;82.06;99378.88;10507279;28;20245;-85
2022/12/23 11:02:33;;;;;;;16.63;10.80;;;;;;;6.80;80.71;99387.56;10503348;28;20191;-86
2022/12/23 11:07:55;;;;;;;15.37;10.10;;;;;;;6.85;80.78;99387.38;10526735;28;20191;-87
2022/12/23 11:13:47;;;;;;;11.60;9.50;;;;;;;6.76;80.81;99381.00;10485639;28;20222;-84
2022/12/23 11:19:14;;;;;;;12.33;10.00;;;;;;;6.88;80.74;99369.94;10498122;28;20222;-86
2022/12/23 11:24:38;;;;;;;10.63;9.53;;;;;;;6.98;80.20;99363.13;10497530;28;20656;-85
2022/12/23 11:30:00;;;;;;;11.87;10.00;;;;;;;7.14;79.96;99343.78;10517650;28;20191;-86
2022/12/23 11:35:27;;;;;;;11.83;9.60;;;;;;;6.89;80.13;99323.94;10505642;28;20267;-85
2022/12/23 11:40:49;;;;;;;13.33;9.27;;;;;;;6.99;80.29;99350.78;10518134;28;20223;-85
2022/12/23 11:46:23;;;;;;;15.43;9.03;;;;;;;7.10;79.67;99326.81;10525645;27;20196;-89
2022/12/23 11:52:05;;;;;;;9.20;8.17;;;;;;;7.02;80.25;99331.31;10509249;28;20244;-86
2022/12/23 11:57:38;;;;;;;9.57;7.40;;;;;;;6.86;79.61;99316.22;10544386;28;20263;-85
2022/12/23 12:03:02;;;;;;;9.40;7.13;;;;;;;6.86;80.24;99310.63;10511554;28;20529;-85
2022/12/23 12:08:32;;;;;;;8.77;7.00;;;;;;;6.81;79.74;99295.97;10514324;28;20183;-84
2022/12/23 12:14:02;;;;;;;7.73;6.87;;;;;;;6.27;82.34;99281.63;10504272;28;21359;-85
2022/12/23 12:19:28;;;;;;;9.40;7.30;;;;;;;6.53;81.34;99267.59;10526319;28;20499;-86
2022/12/23 12:24:52;;;;;;;11.07;7.27;;;;;;;6.48;81.75;99256.56;10523376;28;20244;-90
2022/12/23 12:30:18;;;;;;;12.33;9.07;;;;;;;6.55;82.16;99240.06;10508789;28;20259;-88
2022/12/23 12:35:48;;;;;;;9.80;8.40;;;;;;;5.93;83.65;99229.34;10525102;28;20245;-88
2022/12/23 12:41:45;;;;;;;11.87;8.03;;;;;;;6.80;80.59;99219.53;10509577;28;20214;-89
2022/12/23 12:47:15;;;;;;;10.60;8.37;;;;;;;6.71;79.18;99198.34;10503795;28;20672;-85
2022/12/23 12:52:41;;;;;;;12.27;7.77;;;;;;;6.83;79.03;99204.84;10507536;28;20207;-85
2022/12/23 12:58:03;;;;;;;12.60;8.13;;;;;;;6.86;78.72;99200.56;10523094;28;20279;-86
2022/12/23 13:03:43;;;;;;;8.30;7.30;;;;;;;6.71;80.00;99195.53;10505946;28;20207;-86
2022/12/23 13:09:15;;;;;;;9.73;8.27;;;;;;;6.77;80.19;99183.00;10509437;28;20191;-85
2022/12/23 13:15:01;;;;;;;8.87;6.60;;;;;;;6.71;80.18;99176.75;10538937;27;20288;-84
2022/12/23 13:20:45;;;;;;;8.53;6.20;;;;;;;6.73;81.07;99157.63;10504594;28;20226;-85
2022/12/23 13:26:17;;;;;;;7.80;5.93;;;;;;;6.65;80.27;99164.13;10501841;28;20251;-82
2022/12/23 13:32:06;;;;;;;7.47;6.20;;;;;;;6.39;81.89;99152.22;10515699;28;20295;-83
2022/12/23 13:37:54;;;;;;;9.30;6.77;;;;;;;6.67;81.89;99142.19;10511356;28;20477;-84
2022/12/23 13:43:19;;;;;;;8.50;6.73;;;;;;;6.50;83.02;99108.72;10493971;28;20667;-82
2022/12/23 13:49:03;;;;;;;10.97;6.43;;;;;;;6.28;84.29;99090.19;10534463;28;20190;-84
2022/12/23 13:54:37;;;;;;;11.07;7.03;;;;;;;6.69;81.84;99071.84;10525782;28;20604;-85
2022/12/23 14:00:23;;;;;;;11.67;7.53;;;;;;;6.56;82.63;99051.34;10514356;28;20219;-86
2022/12/23 14:05:49;;;;;;;7.57;5.80;;;;;;;6.20;84.64;99030.31;10499827;28;20214;-87
2022/12/23 14:11:32;;;;;;;7.20;5.33;;;;;;;6.43;83.58;99024.44;10544021;27;20255;-86
2022/12/23 14:17:04;;;;;;;5.93;4.67;;;;;;;6.42;83.82;99003.22;10497170;28;20226;-85
2022/12/23 14:22:34;;;;;;;6.47;3.83;;;;;;;6.10;83.61;98994.34;10505806;28;20198;-86
2022/12/23 14:28:08;;;;;;;5.90;3.60;;;;;;;6.15;84.97;98988.53;10522782;28;20194;-84
2022/12/23 14:33:33;;;;;;;7.50;3.30;;;;;;;6.01;85.11;98985.19;10479891;28;20206;-84
2022/12/23 14:39:15;;;;;;;5.40;2.77;;;;;;;5.61;87.22;98981.13;10493810;28;20227;-83
2022/12/23 14:44:37;;;;;;;7.50;3.30;;;;;;;5.84;85.60;98968.50;10531830;28;20234;-83
2022/12/23 14:50:37;;;;;;;4.20;2.57;;;;;;;5.67;87.15;98963.00;10532058;28;20492;-85
2022/12/23 14:56:22;;;;;;;5.17;2.70;;;;;;;6.03;85.27;98948.47;10518380;28;20223;-84
2022/12/23 15:01:50;;;;;;;5.07;2.70;;;;;;;6.04;85.75;98945.34;10494752;28;20226;-84
2022/12/23 15:07:16;;;;;;;3.40;3.10;;;;;;;6.00;86.63;98919.22;10493507;28;20586;-83
2022/12/23 15:12:41;;;;;;;6.63;2.47;;;;;;;6.28;83.85;98944.69;10510927;28;20275;-83
2022/12/23 15:18:06;;;;;;;4.63;2.60;;;;;;;5.67;87.09;98932.25;10512111;28;20242;-82
2022/12/23 15:23:28;;;;;;;4.07;2.77;;;;;;;6.07;85.04;98907.50;10533760;28;20253;-83
2022/12/23 15:28:51;;;;;;;3.57;2.80;;;;;;;6.30;84.81;98898.41;10513566;28;20217;-82
2022/12/23 15:34:21;;;;;;;8.30;4.33;;;;;;;6.43;83.61;98898.50;10504481;28;20214;-82
2022/12/23 15:39:43;;;;;;;5.73;3.17;;;;;;;5.81;86.62;98888.09;10514441;28;20246;-83
2022/12/23 15:45:29;;;;;;;6.23;2.50;;;;;;;6.11;84.90;98892.50;10510766;28;20218;-84
2022/12/23 15:50:54;;;;;;;5.80;3.00;;;;;;;6.41;83.51;98889.66;10505446;28;20268;-82
2022/12/23 15:56:23;;;;;;;5.87;4.07;;;;;;;6.14;85.51;98877.00;10502415;28;20502;-84
2022/12/23 16:01:45;;;;;;;3.13;2.30;;;;;;;6.25;84.95;98884.66;10490554;28;20303;-84
2022/12/23 16:07:23;;;;;;;3.13;2.20;;;;;;;6.05;86.85;98890.22;10491616;28;20233;-81
2022/12/23 16:12:47;;;;;;;1.90;1.80;;;;;;;6.64;86.55;98879.72;10485662;28;20555;-83
2022/12/23 16:18:18;;;;;;;3.33;2.87;;;;;;;6.67;86.51;98867.00;10519174;28;20242;-83
2022/12/23 16:23:48;;;;;;;4.00;3.10;;;;;;;7.01;87.73;98861.84;10515580;28;20573;-85
2022/12/23 16:29:10;;;;;;;4.43;3.17;;;;;;;6.90;88.29;98874.66;10504173;28;20275;-86
2022/12/23 16:34:32;;;;;;;4.17;3.77;;;;;;;7.14;87.68;98881.47;10502697;28;20279;-84
2022/12/23 16:39:55;;;;;;;5.97;5.37;;;;;;;7.21;90.06;98882.50;10492541;28;20674;-83
2022/12/23 16:45:17;;;;;;;5.40;4.90;;;;;;;7.43;88.54;98889.66;10490821;28;20239;-85
2022/12/23 16:50:39;;;;;;;6.90;6.23;;;;;;;7.32;89.59;98889.28;10494581;28;20252;-85
2022/12/23 16:56:12;;;;;;;9.80;7.17;;;;;;;7.31;90.22;98898.06;10510207;28;20287;-83
2022/12/23 17:01:39;;;;;;;8.50;7.60;;;;;;;7.41;90.52;98897.59;10500719;28;20234;-83
2022/12/23 17:07:04;;;;;;;11.47;8.87;;;;;;;7.46;89.22;98914.19;10526034;28;20256;-82
2022/12/23 17:12:26;;;;;;;8.83;7.87;;;;;;;7.53;90.53;98911.63;10505105;28;20207;-82
2022/12/23 17:17:50;;;;;;;9.97;8.63;;;;;;;7.57;90.81;98918.22;10499541;28;20287;-82
2022/12/23 17:23:27;;;;;;;6.20;5.57;;;;;;;7.13;92.91;98913.44;10503911;28;20226;-83
2022/12/23 17:28:49;;;;;;;4.53;4.23;;;;;;;7.49;90.77;98915.47;10518130;28;20191;-85
2022/12/23 17:34:16;;;;;;;5.40;5.00;;;;;;;7.63;90.33;98904.75;10501735;28;20256;-82
2022/12/23 17:39:38;;;;;;;6.43;5.93;;;;;;;7.17;91.79;98934.00;10531988;27;20254;-86
2022/12/23 17:45:01;;;;;;;7.63;6.83;;;;;;;7.36;92.39;98931.47;10512254;28;20594;-83
2022/12/23 17:50:23;;;;;;;9.17;8.33;;;;;;;7.42;91.56;98957.28;10516967;28;20545;-83
2022/12/23 17:55:45;;;;;;;9.27;8.40;;;;;;;7.14;93.29;98959.91;10525825;28;20279;-83
2022/12/23 18:01:17;;;;;;;8.67;7.17;;;;;;;7.42;90.70;98966.53;10553033;28;20619;-84
2022/12/23 18:06:39;;;;;;;9.07;6.37;;;;;;;7.90;87.89;98987.38;10480026;28;21139;-83
2022/12/23 18:12:01;;;;;;;7.47;5.27;;;;;;;7.67;89.24;98973.81;10517938;28;20222;-82
2022/12/23 18:17:23;;;;;;;8.20;4.97;;;;;;;7.59;90.48;98988.75;10512972;28;20197;-82
2022/12/23 18:22:47;;;;;;;8.10;4.80;;;;;;;7.12;91.55;99004.25;10525567;28;20250;-83
2022/12/23 18:28:10;;;;;;;6.87;5.50;;;;;;;7.55;89.87;99012.25;10504395;28;20234;-82
2022/12/23 18:33:32;;;;;;;9.43;5.27;;;;;;;7.51;89.56;99012.09;10527836;28;20282;-82
2022/12/23 18:38:55;;;;;;;7.47;4.57;;;;;;;7.50;88.19;99021.66;10518197;28;20566;-82
2022/12/23 18:44:19;;;;;;;10.40;4.27;;;;;;;7.24;88.61;99033.16;10481914;28;20235;-83
2022/12/23 18:49:41;;;;;;;12.50;5.13;;;;;;;7.53;87.03;99018.16;10515201;28;20224;-82
2022/12/23 18:55:05;;;;;;;10.40;5.83;;;;;;;7.34;87.84;99021.50;10490738;28;20294;-82
2022/12/23 19:00:28;;;;;;;13.47;4.47;;;;;;;7.38;87.72;99044.06;10517831;27;20918;-83
2022/12/23 19:05:52;;;;;;;17.30;4.57;;;;;;;7.36;86.43;99057.59;10533427;27;20378;-82
2022/12/23 19:11:17;;;;;;;11.70;3.17;;;;;;;7.30;86.36;99053.38;10517557;28;20221;-81
2022/12/23 19:16:40;;;;;;;10.97;3.17;;;;;;;6.96;87.33;99083.34;10518429;28;20308;-86
2022/12/23 19:22:02;;;;;;;15.60;3.80;;;;;;;7.17;85.74;99088.13;10527532;28;20640;-86
2022/12/23 19:27:24;;;;;;;12.33;3.33;;;;;;;7.04;86.63;99097.63;10538834;28;20218;-83
2022/12/23 19:32:50;;;;;;;8.47;3.47;;;;;;;7.46;84.41;99102.00;10529306;28;20346;-82
2022/12/23 19:38:12;;;;;;;15.77;3.27;;;;;;;7.57;84.16;99103.25;10542185;28;20226;-82
2022/12/23 19:43:36;;;;;;;15.87;3.63;;;;;;;7.21;84.26;99117.06;10517529;28;20201;-80
2022/12/23 19:48:58;;;;;;;20.73;4.20;;;;;;;7.07;85.36;99125.75;10524672;28;20229;-82
2022/12/23 19:54:20;;;;;;;17.03;3.93;;;;;;;7.37;83.79;99127.31;10551349;28;20217;-89
2022/12/23 19:59:42;;;;;;;16.40;4.23;;;;;;;6.98;84.59;99128.63;10492788;28;20254;-83
2022/12/23 20:05:12;;;;;;;14.80;3.47;;;;;;;7.06;84.51;99137.34;10507183;28;20234;-83
2022/12/23 20:10:35;;;;;;;18.10;4.30;;;;;;;7.39;82.20;99135.41;10546215;28;20208;-81
2022/12/23 20:15:57;;;;;;;20.10;4.57;;;;;;;7.10;83.32;99143.88;10549924;28;20229;-82
2022/12/23 20:21:20;;;;;;;18.07;4.40;;;;;;;7.07;84.78;99153.78;10520695;28;20242;-81
2022/12/23 20:26:43;;;;;;;19.60;4.30;;;;;;;6.94;84.65;99152.88;10533094;28;20255;-82
2022/12/23 20:32:05;;;;;;;19.17;4.60;;;;;;;7.04;83.86;99160.09;10544762;28;20213;-83
2022/12/23 20:37:27;;;;;;;18.10;4.17;;;;;;;6.80;84.09;99174.72;10535286;28;20330;-82
2022/12/23 20:42:49;;;;;;;17.33;3.77;;;;;;;6.71;85.52;99181.53;10514462;28;20258;-83
2022/12/23 20:48:11;;;;;;;22.50;4.60;;;;;;;7.25;83.68;99185.31;10487084;28;20252;-83
2022/12/23 20:53:34;;;;;;;20.80;4.57;;;;;;;7.07;83.35;99201.41;10518019;28;20207;-83
2022/12/23 20:58:57;;;;;;;16.70;4.07;;;;;;;6.67;84.51;99225.38;10513806;28;20250;-83
2022/12/23 21:04:21;;;;;;;14.90;3.23;;;;;;;6.94;84.38;99239.72;10504916;28;20286;-83
2022/12/23 21:09:43;;;;;;;19.40;4.00;;;;;;;6.77;84.30;99247.41;10511388;28;20237;-82
2022/12/23 21:15:06;;;;;;;16.80;4.63;;;;;;;6.70;83.33;99242.31;10515614;28;20634;-84
2022/12/23 21:20:28;;;;;;;15.37;3.30;;;;;;;6.80;83.21;99258.72;10503415;28;20623;-84
2022/12/23 21:25:50;;;;;;;15.83;4.00;;;;;;;6.92;82.86;99261.66;10487988;28;20229;-83
2022/12/23 21:31:14;;;;;;;16.43;3.53;;;;;;;7.26;81.16;99271.03;10492107;28;20252;-84
2022/12/23 21:36:37;;;;;;;19.17;4.50;;;;;;;7.09;82.25;99257.09;10508843;28;20198;-84
2022/12/23 21:41:59;;;;;;;21.93;3.87;;;;;;;7.18;82.45;99274.72;10524696;27;20241;-83
2022/12/23 21:47:21;;;;;;;19.27;4.53;;;;;;;6.54;86.37;99261.63;10484760;28;20207;-82
2022/12/23 21:52:43;;;;;;;13.77;3.90;;;;;;;6.29;87.42;99296.09;10515092;28;20244;-84
2022/12/23 21:58:05;;;;;;;19.73;3.77;;;;;;;6.95;84.81;99290.97;10493552;28;20241;-82
2022/12/23 22:03:28;;;;;;;14.03;3.90;;;;;;;6.50;86.19;99299.06;10483504;28;20235;-82
2022/12/23 22:08:51;;;;;;;17.77;3.27;;;;;;;6.41;87.02;99303.84;10533765;28;20656;-83
2022/12/23 22:14:16;;;;;;;19.97;3.90;;;;;;;6.47;85.93;99322.09;10515512;28;20307;-83
2022/12/23 22:19:38;;;;;;;18.00;3.70;;;;;;;6.61;84.58;99331.13;10474553;28;20284;-83
2022/12/23 22:25:00;;;;;;;15.47;3.90;;;;;;;6.37;84.05;99326.06;10508107;28;20545;-83
2022/12/23 22:30:22;;;;;;;14.03;3.73;;;;;;;6.54;84.23;99345.63;10525269;28;20207;-84
2022/12/23 22:35:53;;;;;;;14.07;3.23;;;;;;;6.52;85.05;99347.13;10504184;28;20202;-85
2022/12/23 22:41:15;;;;;;;11.83;3.77;;;;;;;6.49;86.20;99359.00;10524109;28;20210;-82
2022/12/23 22:46:37;;;;;;;17.63;3.43;;;;;;;6.23;88.26;99368.22;10518564;28;20206;-85
2022/12/23 22:51:59;;;;;;;17.83;4.37;;;;;;;6.53;87.17;99371.19;10471955;28;20207;-84
2022/12/23 22:57:21;;;;;;;14.77;4.27;;;;;;;6.51;86.61;99379.91;10497683;28;20219;-84
2022/12/23 23:02:43;;;;;;;14.93;4.30;;;;;;;6.37;85.52;99395.19;10478176;28;20231;-84
2022/12/23 23:08:06;;;;;;;19.93;4.40;;;;;;;6.49;85.67;99396.19;10501162;28;20285;-83
2022/12/23 23:13:33;;;;;;;17.90;4.20;;;;;;;6.74;83.61;99397.31;10508680;28;20548;-83
2022/12/23 23:18:57;;;;;;;19.77;4.53;;;;;;;6.37;84.00;99412.00;10552569;28;20198;-84
2022/12/23 23:24:19;;;;;;;18.70;4.97;;;;;;;6.46;82.28;99421.22;10536709;28;20263;-83
2022/12/23 23:29:41;;;;;;;17.77;4.30;;;;;;;6.38;82.32;99430.44;10515110;28;20511;-83
2022/12/23 23:35:04;;;;;;;15.27;4.00;;;;;;;6.21;83.79;99443.25;10519854;28;20244;-83
2022/12/23 23:40:26;;;;;;;17.47;3.77;;;;;;;6.36;82.03;99443.91;10547930;28;20244;-84
2022/12/23 23:45:48;;;;;;;16.37;3.40;;;;;;;6.58;80.56;99449.38;10494692;28;20207;-83
2022/12/23 23:51:11;;;;;;;15.87;3.83;;;;;;;6.62;79.13;99447.56;10526100;28;20515;-84
2022/12/23 23:56:34;;;;;;;14.40;3.53;;;;;;;6.34;81.35;99451.81;10520496;28;20691;-83
